Time;durP1;ratioP1;P1;durP2;ratioP2;P2;SDS_P1;SDS_P2;PMS_P1;PMS_P2;Temp;Humidity;BMP_temperature;BMP_pressure;BME280_temperature;BME280_humidity;BME280_pressure;Samples;Min_cycle;Max_cycle;Signal;HPM_P1;HPM_P2
2024/02/27 00:01:59;;;;;;;12.20;2.00;;;15.00;88.20;;;;;;5053980;28;20095;-73
2024/02/27 00:04:24;;;;;;;12.98;2.35;;;15.00;88.30;;;;;;5054158;28;20075;-74
2024/02/27 00:06:51;;;;;;;9.95;2.00;;;15.00;88.20;;;;;;5054115;28;20060;-72
2024/02/27 00:09:18;;;;;;;9.85;1.88;;;15.00;88.10;;;;;;5054048;28;20040;-72
2024/02/27 00:11:47;;;;;;;12.77;2.80;;;15.00;88.10;;;;;;5054025;28;20037;-73
2024/02/27 00:14:13;;;;;;;16.73;2.53;;;15.00;88.30;;;;;;5054008;28;20033;-71
2024/02/27 00:16:39;;;;;;;14.55;3.25;;;15.00;88.10;;;;;;5053785;28;20040;-73
2024/02/27 00:19:05;;;;;;;8.90;2.70;;;15.00;88.20;;;;;;5053920;28;20088;-72
2024/02/27 00:21:31;;;;;;;9.82;2.65;;;15.00;88.00;;;;;;5053815;28;20135;-73
2024/02/27 00:23:56;;;;;;;11.52;2.10;;;15.00;87.90;;;;;;5053608;28;20037;-72
2024/02/27 00:26:22;;;;;;;10.20;2.22;;;15.00;87.90;;;;;;5053770;28;20033;-74
2024/02/27 00:28:48;;;;;;;9.52;2.35;;;15.10;87.70;;;;;;5053417;28;20032;-72
2024/02/27 00:31:14;;;;;;;9.65;1.88;;;15.10;87.70;;;;;;5053386;28;20059;-73
2024/02/27 00:33:40;;;;;;;9.90;2.60;;;15.10;87.70;;;;;;5053326;28;20033;-73
2024/02/27 00:36:06;;;;;;;10.05;1.80;;;15.00;87.50;;;;;;5053394;28;20418;-73
2024/02/27 00:38:32;;;;;;;10.82;2.28;;;15.10;87.60;;;;;;5053413;28;20033;-72
2024/02/27 00:40:57;;;;;;;9.88;2.20;;;15.00;87.40;;;;;;5053528;28;20090;-73
2024/02/27 00:43:23;;;;;;;10.25;2.22;;;15.10;87.50;;;;;;5053453;28;20118;-72
2024/02/27 00:45:49;;;;;;;12.98;2.67;;;15.00;87.40;;;;;;5053178;28;20096;-73
2024/02/27 00:48:14;;;;;;;9.55;2.05;;;15.10;87.30;;;;;;5053365;28;20489;-73
2024/02/27 00:50:40;;;;;;;7.97;2.03;;;15.10;87.30;;;;;;5053251;28;20079;-72
2024/02/27 00:53:07;;;;;;;9.73;2.47;;;15.10;87.20;;;;;;5052911;28;20500;-72
2024/02/27 00:55:33;;;;;;;7.28;1.52;;;15.10;87.10;;;;;;5052644;28;20401;-74
2024/02/27 00:57:58;;;;;;;12.13;2.15;;;15.10;86.90;;;;;;5052905;28;20041;-73
2024/02/27 01:00:24;;;;;;;9.73;2.10;;;15.10;86.80;;;;;;5052939;28;20064;-72
2024/02/27 01:02:50;;;;;;;12.73;2.13;;;15.10;86.70;;;;;;5052875;28;20505;-72
2024/02/27 01:05:16;;;;;;;7.65;1.92;;;15.10;86.60;;;;;;5052733;28;20508;-73
2024/02/27 01:07:42;;;;;;;10.88;2.00;;;15.10;86.60;;;;;;5052933;28;20120;-73
2024/02/27 01:10:08;;;;;;;8.82;1.90;;;15.10;86.60;;;;;;5052973;28;20124;-73
2024/02/27 01:12:34;;;;;;;11.68;2.10;;;15.10;86.50;;;;;;5051465;28;20091;-71
2024/02/27 01:15:00;;;;;;;11.02;2.30;;;15.10;86.60;;;;;;5034650;28;20036;-72
2024/02/27 01:17:26;;;;;;;7.82;1.98;;;15.10;86.70;;;;;;5052857;28;20476;-72
2024/02/27 01:19:52;;;;;;;12.30;2.00;;;15.10;86.60;;;;;;5052915;28;20037;-73
2024/02/27 01:22:28;;;;;;;10.43;1.88;;;15.10;86.60;;;;;;5052716;28;20041;-73
2024/02/27 01:24:58;;;;;;;13.30;2.00;;;15.10;86.70;;;;;;5052735;28;20029;-72
2024/02/27 01:27:24;;;;;;;6.65;1.65;;;15.10;86.60;;;;;;5052182;28;20124;-73
2024/02/27 01:29:50;;;;;;;9.82;1.92;;;15.10;86.70;;;;;;5052692;28;20500;-73
2024/02/27 01:32:16;;;;;;;9.70;1.85;;;15.10;86.70;;;;;;5052490;28;20079;-73
2024/02/27 01:34:42;;;;;;;9.30;1.80;;;15.10;86.80;;;;;;5052677;28;20114;-73
2024/02/27 01:37:07;;;;;;;12.30;2.22;;;15.10;86.60;;;;;;5052512;28;20029;-72
2024/02/27 01:39:33;;;;;;;10.68;1.73;;;15.00;86.60;;;;;;5052566;28;20033;-72
2024/02/27 01:41:59;;;;;;;8.50;1.83;;;15.10;86.60;;;;;;5052422;28;20091;-72
2024/02/27 01:44:26;;;;;;;9.93;1.70;;;15.00;86.60;;;;;;5052287;28;20037;-73
2024/02/27 01:46:52;;;;;;;13.05;2.70;;;15.00;86.60;;;;;;5051016;28;20132;-73
2024/02/27 01:49:18;;;;;;;9.90;1.70;;;15.00;86.50;;;;;;5052339;28;20029;-74
2024/02/27 01:51:46;;;;;;;8.30;2.13;;;15.00;86.40;;;;;;5052422;28;20612;-73
2024/02/27 01:54:17;;;;;;;11.63;1.88;;;15.00;86.40;;;;;;5052303;28;20111;-73
2024/02/27 01:56:45;;;;;;;9.60;2.00;;;15.00;86.50;;;;;;5052348;28;20033;-73
2024/02/27 01:59:12;;;;;;;16.73;2.03;;;15.00;86.40;;;;;;5050821;28;20033;-72
2024/02/27 02:01:39;;;;;;;11.77;2.38;;;15.00;86.30;;;;;;5052301;28;20037;-73
2024/02/27 02:04:08;;;;;;;9.68;2.05;;;15.00;86.30;;;;;;5052471;28;20484;-72
2024/02/27 02:06:35;;;;;;;8.88;1.75;;;15.00;86.20;;;;;;5056865;28;20056;-73
2024/02/27 02:09:01;;;;;;;10.65;2.05;;;15.00;86.20;;;;;;5056483;28;20068;-73
2024/02/27 02:11:27;;;;;;;6.57;1.83;;;15.00;86.20;;;;;;5056440;28;20064;-72
2024/02/27 02:13:53;;;;;;;9.30;1.98;;;15.00;86.20;;;;;;5054911;28;20037;-73
2024/02/27 02:16:19;;;;;;;9.73;2.13;;;15.00;86.10;;;;;;5056357;28;20396;-72
2024/02/27 02:18:44;;;;;;;7.68;1.90;;;15.00;86.00;;;;;;5055910;28;20045;-73
2024/02/27 02:21:10;;;;;;;11.10;2.28;;;15.00;86.10;;;;;;5056114;28;20061;-74
2024/02/27 02:23:36;;;;;;;8.25;2.10;;;15.00;86.00;;;;;;5055915;28;20045;-72
2024/02/27 02:26:02;;;;;;;8.98;1.95;;;15.00;86.00;;;;;;5055928;28;20119;-74
2024/02/27 02:28:28;;;;;;;10.07;2.25;;;15.00;86.00;;;;;;5055985;28;20095;-74
2024/02/27 02:30:54;;;;;;;11.52;1.98;;;15.00;86.00;;;;;;5055594;28;20049;-74
2024/02/27 02:33:20;;;;;;;8.23;1.95;;;15.00;86.00;;;;;;5055838;28;20040;-74
2024/02/27 02:35:45;;;;;;;8.35;1.67;;;15.00;86.00;;;;;;5055721;28;20029;-73
2024/02/27 02:38:12;;;;;;;14.45;2.47;;;15.00;86.00;;;;;;5055657;28;20029;-73
2024/02/27 02:40:37;;;;;;;9.73;2.15;;;15.00;86.60;;;;;;5055609;28;20033;-72
2024/02/27 02:43:03;;;;;;;12.73;2.78;;;15.00;85.90;;;;;;5055502;28;20044;-72
2024/02/27 02:45:29;;;;;;;8.35;1.70;;;15.00;85.90;;;;;;5055379;28;20481;-74
2024/02/27 02:47:55;;;;;;;10.15;2.20;;;15.00;86.00;;;;;;5055611;28;20029;-72
2024/02/27 02:50:21;;;;;;;7.88;1.67;;;15.00;86.00;;;;;;5055681;28;20128;-72
2024/02/27 02:52:47;;;;;;;7.72;1.60;;;15.00;86.00;;;;;;5055389;28;20033;-72
2024/02/27 02:55:13;;;;;;;8.93;1.80;;;15.00;85.90;;;;;;5055575;28;20040;-73
2024/02/27 02:57:38;;;;;;;9.90;1.73;;;15.00;86.10;;;;;;5055417;28;20082;-74
2024/02/27 03:00:05;;;;;;;10.52;1.88;;;15.00;85.90;;;;;;5055474;28;20029;-72
2024/02/27 03:02:31;;;;;;;9.32;2.08;;;15.00;85.90;;;;;;5055119;28;20048;-72
2024/02/27 03:04:58;;;;;;;7.55;1.75;;;15.00;85.90;;;;;;5037817;28;20033;-72
2024/02/27 03:07:24;;;;;;;5.85;1.40;;;15.00;85.80;;;;;;5054236;28;20059;-73
2024/02/27 03:09:50;;;;;;;8.65;1.58;;;15.00;85.80;;;;;;5053777;28;20065;-72
2024/02/27 03:12:17;;;;;;;8.27;2.00;;;15.00;85.90;;;;;;5055307;28;20119;-72
2024/02/27 03:14:47;;;;;;;10.55;2.25;;;15.00;85.90;;;;;;5055157;28;20105;-71
2024/02/27 03:17:16;;;;;;;7.55;1.48;;;15.00;85.90;;;;;;5054332;28;20029;-73
2024/02/27 03:19:42;;;;;;;6.32;1.60;;;15.00;85.90;;;;;;5055274;28;20025;-73
2024/02/27 03:22:11;;;;;;;9.15;1.80;;;15.00;85.70;;;;;;5055671;28;20385;-73
2024/02/27 03:24:37;;;;;;;11.90;2.20;;;15.00;85.80;;;;;;5054819;28;20067;-72
2024/02/27 03:27:03;;;;;;;6.57;1.58;;;14.90;85.50;;;;;;5054595;28;20068;-72
2024/02/27 03:29:30;;;;;;;6.53;1.65;;;14.90;85.40;;;;;;5054823;28;20044;-72
2024/02/27 03:31:55;;;;;;;10.43;1.90;;;14.90;86.00;;;;;;5054766;28;20080;-72
2024/02/27 03:34:21;;;;;;;7.78;1.73;;;14.90;85.30;;;;;;5054807;28;20060;-72
2024/02/27 03:36:47;;;;;;;8.55;1.95;;;14.90;85.40;;;;;;5054632;28;20040;-73
2024/02/27 03:39:13;;;;;;;7.25;1.80;;;14.90;85.30;;;;;;5054598;28;20115;-73
2024/02/27 03:41:39;;;;;;;8.65;1.83;;;14.90;85.20;;;;;;5054703;28;20120;-74
2024/02/27 03:44:05;;;;;;;8.38;1.65;;;14.90;85.00;;;;;;5054506;28;20116;-72
2024/02/27 03:46:30;;;;;;;8.20;1.40;;;14.90;85.50;;;;;;5054239;28;20481;-74
2024/02/27 03:48:56;;;;;;;10.55;1.60;;;14.90;84.90;;;;;;5054627;28;20401;-73
2024/02/27 03:51:22;;;;;;;6.30;1.75;;;14.90;84.60;;;;;;5054332;28;20033;-74
2024/02/27 03:53:48;;;;;;;8.48;1.75;;;14.80;84.50;;;;;;5054329;28;20029;-72
2024/02/27 03:56:13;;;;;;;6.68;1.50;;;14.80;84.40;;;;;;5054194;28;20032;-73
2024/02/27 03:58:39;;;;;;;6.57;1.58;;;14.80;84.10;;;;;;5054440;28;20041;-73
2024/02/27 04:01:05;;;;;;;5.40;1.30;;;14.80;84.00;;;;;;5054266;28;20029;-73
2024/02/27 04:03:31;;;;;;;6.53;1.55;;;14.80;84.00;;;;;;5054146;28;20056;-73
2024/02/27 04:05:56;;;;;;;7.13;1.30;;;14.80;84.00;;;;;;5054032;28;20139;-73
2024/02/27 04:08:22;;;;;;;11.30;2.15;;;14.80;83.60;;;;;;5054028;28;20056;-73
2024/02/27 04:10:48;;;;;;;4.93;1.38;;;14.80;83.70;;;;;;5054090;28;20108;-72
2024/02/27 04:13:13;;;;;;;10.18;1.50;;;14.80;83.50;;;;;;5054014;28;20044;-73
2024/02/27 04:15:40;;;;;;;9.35;1.88;;;14.80;83.50;;;;;;5053836;28;20033;-73
2024/02/27 04:18:06;;;;;;;9.25;1.70;;;14.80;83.40;;;;;;5053951;28;20051;-73
2024/02/27 04:20:32;;;;;;;6.72;1.73;;;14.80;83.40;;;;;;5053851;28;20032;-73
2024/02/27 04:22:58;;;;;;;9.07;1.63;;;14.80;83.30;;;;;;5053699;28;20049;-74
2024/02/27 04:25:23;;;;;;;9.15;1.38;;;14.80;84.00;;;;;;5053651;28;20566;-73
2024/02/27 04:27:49;;;;;;;7.53;1.65;;;14.80;83.20;;;;;;5053422;28;20037;-72
2024/02/27 04:30:15;;;;;;;8.75;1.77;;;14.80;83.10;;;;;;5053033;28;20041;-73
2024/02/27 04:32:40;;;;;;;8.55;1.42;;;14.80;83.20;;;;;;5053596;28;20456;-73
2024/02/27 04:35:07;;;;;;;11.63;1.67;;;14.80;82.90;;;;;;5053320;28;20036;-72
2024/02/27 04:37:33;;;;;;;9.50;1.75;;;14.80;82.80;;;;;;5053106;28;20035;-73
2024/02/27 04:39:58;;;;;;;7.72;1.75;;;14.80;82.70;;;;;;5052052;28;20119;-73
2024/02/27 04:42:24;;;;;;;11.00;2.20;;;14.80;82.70;;;;;;5053032;28;20388;-73
2024/02/27 04:44:50;;;;;;;7.05;1.60;;;14.80;82.70;;;;;;5054010;28;20036;-73
2024/02/27 04:47:16;;;;;;;8.93;1.63;;;14.80;82.70;;;;;;5053570;28;20091;-72
2024/02/27 04:49:41;;;;;;;7.80;1.52;;;14.80;82.60;;;;;;5053158;28;20041;-74
2024/02/27 04:52:07;;;;;;;7.22;1.38;;;14.80;82.70;;;;;;5052975;28;20037;-73
2024/02/27 04:54:35;;;;;;;11.80;1.60;;;14.80;82.50;;;;;;5053175;28;20040;-73
2024/02/27 04:57:00;;;;;;;10.52;2.10;;;14.80;82.40;;;;;;5051762;28;20025;-74
2024/02/27 04:59:26;;;;;;;7.65;1.73;;;14.80;82.60;;;;;;5053041;28;20481;-73
2024/02/27 05:01:52;;;;;;;8.43;1.33;;;14.70;82.30;;;;;;5052845;28;20588;-73
2024/02/27 05:04:18;;;;;;;5.05;1.73;;;14.80;82.40;;;;;;5053017;28;20116;-74
2024/02/27 05:06:44;;;;;;;12.02;2.10;;;14.80;82.40;;;;;;5052729;28;20037;-73
2024/02/27 05:09:09;;;;;;;13.13;2.03;;;14.70;82.30;;;;;;5052946;28;20441;-73
2024/02/27 05:11:35;;;;;;;10.50;1.92;;;14.70;82.40;;;;;;5052796;28;20036;-72
2024/02/27 05:14:01;;;;;;;9.05;1.90;;;14.70;82.50;;;;;;5053403;28;20045;-73
2024/02/27 05:16:26;;;;;;;6.65;1.85;;;14.70;82.50;;;;;;5052259;28;20037;-72
2024/02/27 05:18:52;;;;;;;8.88;1.70;;;14.70;82.40;;;;;;5052727;28;20033;-73
2024/02/27 05:21:19;;;;;;;9.45;2.20;;;14.70;82.30;;;;;;5052687;28;20639;-72
2024/02/27 05:23:45;;;;;;;10.90;1.88;;;14.70;82.50;;;;;;5052813;28;20099;-73
2024/02/27 05:26:11;;;;;;;7.80;1.65;;;14.70;82.60;;;;;;5052777;28;20056;-72
2024/02/27 05:28:37;;;;;;;8.35;1.90;;;14.70;82.50;;;;;;5052472;28;20476;-73
2024/02/27 05:31:26;;;;;;;9.48;2.05;;;14.70;82.20;;;;;;5052493;28;20146;-72
2024/02/27 05:33:57;;;;;;;6.70;2.10;;;14.70;82.60;;;;;;5052721;28;20044;-73
2024/02/27 05:36:24;;;;;;;8.90;1.80;;;14.70;82.00;;;;;;5052628;28;20092;-74
2024/02/27 05:38:50;;;;;;;7.38;2.00;;;14.70;81.80;;;;;;5052535;28;20116;-73
2024/02/27 05:41:17;;;;;;;9.20;2.10;;;14.70;81.70;;;;;;5052066;28;20520;-73
2024/02/27 05:43:43;;;;;;;8.57;2.30;;;14.70;81.70;;;;;;5052228;28;20151;-73
2024/02/27 05:46:09;;;;;;;8.05;1.90;;;14.70;81.60;;;;;;5052590;28;20052;-73
2024/02/27 05:48:44;;;;;;;11.65;2.08;;;14.80;81.70;;;;;;5051066;28;20037;-71
2024/02/27 05:51:10;;;;;;;13.73;3.33;;;14.80;81.40;;;;;;5052422;28;20032;-73
2024/02/27 05:53:36;;;;;;;8.10;1.77;;;14.80;81.60;;;;;;5052307;28;20055;-72
2024/02/27 05:56:03;;;;;;;9.40;2.83;;;14.80;81.10;;;;;;5052218;28;20064;-73
2024/02/27 05:58:29;;;;;;;6.18;2.13;;;14.80;81.10;;;;;;5051028;28;20037;-73
2024/02/27 06:00:56;;;;;;;14.18;2.10;;;14.80;81.00;;;;;;5052152;28;20519;-73
2024/02/27 06:03:23;;;;;;;10.98;2.20;;;14.80;81.00;;;;;;5051993;28;20064;-72
2024/02/27 06:05:50;;;;;;;8.95;1.75;;;14.80;80.60;;;;;;5052142;28;20033;-73
2024/02/27 06:08:17;;;;;;;9.50;2.00;;;14.90;81.10;;;;;;5052356;28;20040;-74
2024/02/27 06:10:43;;;;;;;8.02;1.80;;;14.90;80.20;;;;;;5050693;28;20029;-74
2024/02/27 06:13:09;;;;;;;6.40;1.88;;;14.90;79.90;;;;;;5051972;28;20021;-74
2024/02/27 06:15:35;;;;;;;7.47;2.10;;;15.00;79.80;;;;;;5052561;28;20095;-74
2024/02/27 06:18:01;;;;;;;10.65;2.03;;;15.00;79.70;;;;;;5052196;28;20037;-73
2024/02/27 06:23:12;;;;;;;;;;;15.10;79.80;;;;;;5052623;28;20044;-73
2024/02/27 06:25:38;;;;;;;5.88;2.10;;;15.00;79.50;;;;;;5051757;28;19904;-73
2024/02/27 06:28:04;;;;;;;9.95;2.47;;;15.00;80.50;;;;;;5052043;28;20059;-73
2024/02/27 06:30:30;;;;;;;4.97;2.20;;;15.00;80.00;;;;;;5051592;28;20048;-73
2024/02/27 06:32:56;;;;;;;8.15;2.20;;;14.90;80.10;;;;;;5051829;28;20029;-73
2024/02/27 06:35:24;;;;;;;7.93;2.05;;;15.00;80.20;;;;;;5051941;28;20086;-73
2024/02/27 06:37:49;;;;;;;8.63;2.15;;;15.00;80.20;;;;;;5051558;28;20051;-74
2024/02/27 06:40:16;;;;;;;9.48;2.20;;;14.90;80.00;;;;;;5050341;28;20033;-75
2024/02/27 06:42:43;;;;;;;6.60;2.00;;;15.00;80.10;;;;;;5051605;28;20084;-73
2024/02/27 06:45:10;;;;;;;14.02;3.08;;;15.00;80.20;;;;;;5050489;28;20410;-74
2024/02/27 06:47:41;;;;;;;98.88;14.05;;;15.00;80.10;;;;;;5033805;28;20035;-74
2024/02/27 06:50:09;;;;;;;38.28;6.68;;;15.00;80.10;;;;;;5033695;28;20040;-74
2024/02/27 06:52:38;;;;;;;18.10;4.60;;;15.10;80.20;;;;;;5053931;28;20416;-75
2024/02/27 06:55:05;;;;;;;68.13;9.18;;;15.10;79.90;;;;;;5055527;28;20440;-74
2024/02/27 06:57:32;;;;;;;27.85;4.35;;;15.60;79.50;;;;;;5055448;28;20082;-74
2024/02/27 06:59:58;;;;;;;26.73;4.93;;;15.50;78.80;;;;;;5055126;28;20037;-73
2024/02/27 07:02:24;;;;;;;45.85;8.63;;;15.50;78.90;;;;;;5055114;28;20432;-73
2024/02/27 07:04:49;;;;;;;100.38;15.02;;;15.50;79.00;;;;;;5055407;28;20076;-74
2024/02/27 07:07:15;;;;;;;31.63;5.10;;;16.00;78.40;;;;;;5055056;28;20037;-73
2024/02/27 07:09:41;;;;;;;73.68;10.77;;;15.90;77.60;;;;;;5037139;28;20075;-75
2024/02/27 07:12:08;;;;;;;75.30;11.65;;;15.90;77.60;;;;;;5054718;28;20544;-73
2024/02/27 07:14:41;;;;;;;32.28;4.65;;;15.90;77.70;;;;;;5055189;28;20056;-75
2024/02/27 07:17:06;;;;;;;10.15;2.42;;;15.90;77.40;;;;;;5054624;28;20037;-73
2024/02/27 07:19:32;;;;;;;14.57;2.20;;;17.20;76.30;;;;;;5054676;28;20162;-74
2024/02/27 07:21:58;;;;;;;45.25;5.95;;;17.70;74.00;;;;;;5054866;28;20029;-74
2024/02/27 07:24:24;;;;;;;36.25;5.47;;;18.70;71.70;;;;;;5054613;28;20125;-75
2024/02/27 07:26:49;;;;;;;14.18;3.58;;;18.90;70.90;;;;;;5054557;28;20031;-73
2024/02/27 07:29:15;;;;;;;6.20;1.90;;;19.20;69.80;;;;;;5055028;28;20037;-74
2024/02/27 07:31:41;;;;;;;29.23;5.18;;;19.40;69.20;;;;;;5054738;28;20044;-75
2024/02/27 07:34:06;;;;;;;20.20;2.78;;;19.00;69.10;;;;;;5054741;28;20362;-73
2024/02/27 07:36:32;;;;;;;9.68;2.28;;;18.40;69.60;;;;;;5054562;28;20029;-74
2024/02/27 07:38:58;;;;;;;11.77;2.30;;;18.00;71.20;;;;;;5054263;28;20116;-74
2024/02/27 07:41:24;;;;;;;10.00;2.28;;;17.60;71.40;;;;;;5054095;28;20120;-74
2024/02/27 07:43:50;;;;;;;7.88;2.42;;;17.30;71.90;;;;;;5054444;28;20048;-75
2024/02/27 07:46:16;;;;;;;62.42;8.25;;;17.10;72.40;;;;;;5054205;28;20029;-74
2024/02/27 07:48:46;;;;;;;25.13;4.28;;;16.90;72.60;;;;;;5053987;28;20079;-74
2024/02/27 07:51:28;;;;;;;12.63;2.70;;;16.70;73.00;;;;;;5035859;28;20037;-74
2024/02/27 07:53:53;;;;;;;90.57;11.48;;;16.60;73.20;;;;;;5054303;28;20082;-74
2024/02/27 07:56:19;;;;;;;22.02;4.65;;;16.60;73.40;;;;;;5054085;28;20037;-74
2024/02/27 07:58:45;;;;;;;8.77;2.70;;;16.50;73.20;;;;;;5054208;28;20048;-74
2024/02/27 08:01:11;;;;;;;11.68;3.03;;;16.50;73.30;;;;;;5053906;28;20036;-74
2024/02/27 08:03:36;;;;;;;129.75;16.38;;;16.50;73.40;;;;;;5053788;28;20374;-74
2024/02/27 08:06:05;;;;;;;52.20;7.07;;;16.50;73.50;;;;;;5053813;28;20065;-74
2024/02/27 08:08:31;;;;;;;139.50;17.45;;;16.50;73.50;;;;;;5053962;28;20040;-75
2024/02/27 08:10:57;;;;;;;36.38;5.95;;;16.50;73.40;;;;;;5053772;28;20099;-74
2024/02/27 08:13:22;;;;;;;8.55;2.65;;;16.50;73.40;;;;;;5053766;28;20396;-74
2024/02/27 08:15:48;;;;;;;28.27;4.97;;;16.50;73.00;;;;;;5053524;28;20036;-74
2024/02/27 08:18:14;;;;;;;52.83;6.85;;;16.50;73.00;;;;;;5053655;28;20107;-74
2024/02/27 08:20:39;;;;;;;39.08;6.70;;;16.60;73.00;;;;;;5053971;28;20029;-74
2024/02/27 08:23:05;;;;;;;13.10;3.08;;;16.60;72.70;;;;;;5053578;28;20132;-73
2024/02/27 08:25:31;;;;;;;14.55;2.80;;;16.70;72.00;;;;;;5053299;28;20036;-75
2024/02/27 08:27:57;;;;;;;15.65;2.70;;;16.80;71.20;;;;;;5053877;28;20029;-75
2024/02/27 08:30:22;;;;;;;13.43;2.75;;;17.00;70.70;;;;;;5053629;28;20098;-74
2024/02/27 08:32:48;;;;;;;33.30;5.13;;;17.00;70.20;;;;;;5053842;28;20033;-75
2024/02/27 08:35:14;;;;;;;8.80;1.95;;;17.20;69.90;;;;;;5053479;28;20044;-74
2024/02/27 08:37:40;;;;;;;10.30;2.38;;;17.30;69.40;;;;;;5053119;28;20127;-73
2024/02/27 08:40:06;;;;;;;21.63;3.30;;;17.40;69.10;;;;;;5053100;28;20040;-73
2024/02/27 08:42:35;;;;;;;14.82;2.35;;;17.50;68.50;;;;;;5051830;28;20433;-73
2024/02/27 08:45:01;;;;;;;34.28;4.53;;;17.50;68.20;;;;;;5053173;28;20127;-74
2024/02/27 08:47:27;;;;;;;33.90;5.63;;;17.60;68.10;;;;;;5052803;28;20044;-74
2024/02/27 08:49:53;;;;;;;28.33;4.75;;;17.70;67.70;;;;;;5053207;28;20033;-74
2024/02/27 08:52:18;;;;;;;57.75;7.13;;;17.80;67.70;;;;;;5052967;28;20365;-77
2024/02/27 08:54:44;;;;;;;12.23;2.72;;;18.00;67.40;;;;;;5052819;28;20039;-74
2024/02/27 08:57:10;;;;;;;9.80;2.03;;;18.20;67.20;;;;;;5051528;28;20036;-73
2024/02/27 08:59:36;;;;;;;13.90;2.13;;;18.30;66.90;;;;;;5053014;28;20113;-74
2024/02/27 09:02:02;;;;;;;39.70;6.57;;;18.40;66.40;;;;;;5052643;28;20033;-72
2024/02/27 09:04:28;;;;;;;8.50;2.35;;;18.50;66.10;;;;;;5052692;28;20087;-74
2024/02/27 09:06:53;;;;;;;52.75;7.65;;;18.50;65.70;;;;;;5052665;28;20033;-75
2024/02/27 09:09:19;;;;;;;56.08;6.68;;;18.60;65.90;;;;;;5052740;28;20065;-75
2024/02/27 09:11:47;;;;;;;14.02;2.30;;;18.70;65.30;;;;;;5052536;28;20342;-73
2024/02/27 09:14:13;;;;;;;7.40;2.35;;;18.70;65.00;;;;;;5052335;28;20042;-75
2024/02/27 09:16:38;;;;;;;19.50;3.55;;;18.70;64.80;;;;;;5052441;28;20041;-74
2024/02/27 09:19:04;;;;;;;22.33;4.00;;;18.70;64.80;;;;;;5052523;28;20074;-75
2024/02/27 09:21:30;;;;;;;11.90;2.55;;;18.70;64.90;;;;;;5052490;28;20036;-74
2024/02/27 09:23:55;;;;;;;8.63;2.35;;;18.70;64.80;;;;;;5052090;28;20386;-75
2024/02/27 09:26:21;;;;;;;19.83;3.22;;;18.70;64.70;;;;;;5052368;28;20037;-75
2024/02/27 09:28:47;;;;;;;8.20;2.25;;;18.60;64.70;;;;;;5052416;28;20036;-74
2024/02/27 09:31:13;;;;;;;12.38;2.63;;;18.50;64.50;;;;;;5052252;28;20053;-74
2024/02/27 09:33:38;;;;;;;9.85;2.65;;;18.50;64.80;;;;;;5052387;28;20401;-75
2024/02/27 09:36:04;;;;;;;28.77;3.85;;;18.50;65.00;;;;;;5052102;28;20032;-74
2024/02/27 09:38:30;;;;;;;8.73;2.25;;;18.40;64.60;;;;;;5052534;28;20025;-73
2024/02/27 09:40:59;;;;;;;10.63;2.47;;;18.40;64.70;;;;;;5051969;28;20029;-73
2024/02/27 09:43:29;;;;;;;13.35;2.88;;;18.40;64.50;;;;;;5052135;28;20107;-74
2024/02/27 09:45:57;;;;;;;10.85;2.25;;;18.50;64.70;;;;;;5052151;28;20041;-74
2024/02/27 09:48:28;;;;;;;8.88;2.47;;;18.50;64.60;;;;;;5052001;28;20025;-73
2024/02/27 09:50:55;;;;;;;16.55;3.08;;;18.50;64.30;;;;;;5052080;28;20106;-74
2024/02/27 09:53:22;;;;;;;20.20;2.67;;;18.50;64.00;;;;;;5052166;28;20041;-75
2024/02/27 09:55:48;;;;;;;8.00;2.35;;;18.50;63.90;;;;;;5051948;28;20025;-74
2024/02/27 09:58:16;;;;;;;8.93;2.90;;;18.40;63.90;;;;;;5051917;28;20775;-73
2024/02/27 10:00:41;;;;;;;26.23;3.78;;;18.40;63.90;;;;;;5051922;28;20048;-74
2024/02/27 10:03:08;;;;;;;7.90;2.10;;;18.40;64.00;;;;;;5051758;28;20049;-73
2024/02/27 10:05:37;;;;;;;10.80;2.53;;;18.40;63.90;;;;;;5051895;28;20036;-74
2024/02/27 10:08:09;;;;;;;10.07;2.60;;;18.30;63.80;;;;;;5051140;28;20041;-74
2024/02/27 10:10:38;;;;;;;14.18;2.88;;;18.30;64.00;;;;;;5051954;28;20033;-75
2024/02/27 10:13:04;;;;;;;12.88;2.63;;;18.20;64.00;;;;;;5051450;28;20044;-73
2024/02/27 10:15:30;;;;;;;12.90;2.97;;;18.20;64.20;;;;;;5051845;28;20033;-74
2024/02/27 10:17:56;;;;;;;13.02;2.83;;;18.20;64.20;;;;;;5051644;28;20033;-74
2024/02/27 10:20:28;;;;;;;12.38;2.47;;;18.20;63.60;;;;;;5051946;28;20142;-74
2024/02/27 10:22:55;;;;;;;6.10;1.83;;;18.10;63.40;;;;;;5051863;28;20045;-75
2024/02/27 10:25:27;;;;;;;8.48;2.55;;;18.10;63.20;;;;;;5051731;28;20025;-75
2024/02/27 10:27:54;;;;;;;14.07;3.53;;;18.10;63.20;;;;;;5054097;28;20059;-74
2024/02/27 10:30:22;;;;;;;30.42;3.78;;;18.10;63.10;;;;;;5055405;28;20067;-75
2024/02/27 10:32:49;;;;;;;14.85;3.25;;;18.20;63.30;;;;;;5055538;28;20056;-72
2024/02/27 10:35:16;;;;;;;42.65;5.50;;;18.20;63.10;;;;;;5054069;28;20033;-73
2024/02/27 10:37:42;;;;;;;9.57;2.30;;;18.20;63.10;;;;;;5055946;28;20048;-73
2024/02/27 10:40:10;;;;;;;8.10;2.20;;;18.30;62.90;;;;;;5055341;28;20048;-74
2024/02/27 10:42:40;;;;;;;11.63;1.95;;;18.30;62.90;;;;;;5055271;28;20045;-73
2024/02/27 10:45:06;;;;;;;8.02;2.30;;;18.30;62.60;;;;;;5055172;28;20029;-74
2024/02/27 10:47:33;;;;;;;25.48;3.55;;;18.30;62.60;;;;;;5055436;28;20388;-75
2024/02/27 10:50:01;;;;;;;14.98;2.97;;;18.40;62.50;;;;;;5055283;28;20044;-74
2024/02/27 10:52:30;;;;;;;18.98;3.15;;;18.60;62.20;;;;;;5055379;28;20492;-74
2024/02/27 10:54:58;;;;;;;10.82;2.58;;;18.70;62.00;;;;;;5054048;28;20037;-74
2024/02/27 10:57:25;;;;;;;39.78;5.47;;;18.80;62.00;;;;;;5056311;28;20115;-75
2024/02/27 10:59:52;;;;;;;8.90;2.67;;;18.80;61.30;;;;;;5054919;28;20037;-73
2024/02/27 11:02:19;;;;;;;52.88;4.38;;;18.90;61.20;;;;;;5055158;28;20025;-75
2024/02/27 11:04:50;;;;;;;24.42;3.50;;;19.00;61.20;;;;;;5055080;28;20041;-73
2024/02/27 11:07:17;;;;;;;15.43;2.72;;;19.10;61.00;;;;;;5054747;28;20131;-74
2024/02/27 11:09:44;;;;;;;7.50;2.40;;;19.10;60.70;;;;;;5055046;28;20129;-75
2024/02/27 11:12:15;;;;;;;8.52;2.38;;;19.20;60.30;;;;;;5054973;28;20132;-75
2024/02/27 11:14:50;;;;;;;10.52;2.60;;;19.20;60.20;;;;;;5053946;28;20532;-75
2024/02/27 11:17:22;;;;;;;9.93;2.60;;;19.20;60.30;;;;;;5054876;28;20485;-73
2024/02/27 11:19:52;;;;;;;13.48;2.88;;;19.30;60.20;;;;;;5055421;28;20033;-75
2024/02/27 11:22:22;;;;;;;11.93;2.38;;;19.40;60.00;;;;;;5054860;28;20047;-74
2024/02/27 11:24:48;;;;;;;6.70;2.30;;;19.40;60.30;;;;;;5054786;28;20500;-75
2024/02/27 11:27:20;;;;;;;16.63;9.20;;;19.40;59.30;;;;;;5054550;28;20044;-73
2024/02/27 11:29:48;;;;;;;12.88;4.32;;;19.30;59.10;;;;;;5054800;28;20029;-73
2024/02/27 11:32:15;;;;;;;8.20;1.90;;;19.20;59.30;;;;;;5054391;28;20099;-73
2024/02/27 11:34:40;;;;;;;14.00;2.10;;;19.10;59.60;;;;;;5054507;28;20485;-73
2024/02/27 11:37:13;;;;;;;7.13;2.25;;;19.00;59.70;;;;;;5054475;28;20034;-75
2024/02/27 11:39:39;;;;;;;13.63;2.88;;;19.00;60.30;;;;;;5054189;28;20489;-75
2024/02/27 11:42:07;;;;;;;9.43;2.30;;;18.90;60.70;;;;;;5054241;28;20035;-74
2024/02/27 11:44:52;;;;;;;8.55;2.22;;;18.70;61.00;;;;;;5054255;28;20037;-75
2024/02/27 11:47:52;;;;;;;6.30;2.15;;;18.60;61.20;;;;;;5053969;28;20048;-73
2024/02/27 11:50:36;;;;;;;8.57;2.33;;;18.60;61.10;;;;;;5054238;28;20064;-73
2024/02/27 11:53:16;;;;;;;6.00;2.40;;;18.60;61.40;;;;;;5053902;28;20029;-74
2024/02/27 11:55:49;;;;;;;8.50;2.88;;;18.60;61.20;;;;;;5054237;28;20037;-73
2024/02/27 11:58:16;;;;;;;9.93;2.93;;;18.70;61.30;;;;;;5053875;28;20051;-74
2024/02/27 12:00:46;;;;;;;10.10;2.45;;;18.80;61.10;;;;;;5053587;28;20040;-74
2024/02/27 12:03:12;;;;;;;9.75;2.90;;;18.80;60.70;;;;;;5052248;28;20524;-75
2024/02/27 12:05:38;;;;;;;8.38;2.42;;;18.80;60.80;;;;;;5054407;28;20025;-74
2024/02/27 12:08:04;;;;;;;7.28;2.17;;;18.80;60.80;;;;;;5053862;28;20033;-75
2024/02/27 12:10:30;;;;;;;8.10;2.70;;;18.80;61.10;;;;;;5053666;28;20044;-74
2024/02/27 12:12:56;;;;;;;8.07;1.85;;;18.80;61.30;;;;;;5053666;28;20377;-74
2024/02/27 12:15:23;;;;;;;9.48;2.25;;;18.80;61.70;;;;;;5053578;28;20040;-74
2024/02/27 12:17:49;;;;;;;5.72;2.30;;;18.70;61.80;;;;;;5053376;28;20147;-74
2024/02/27 12:20:15;;;;;;;7.80;2.45;;;18.70;61.80;;;;;;5053503;28;20021;-74
2024/02/27 12:22:48;;;;;;;7.50;2.90;;;18.70;62.30;;;;;;5053242;28;20044;-74
2024/02/27 12:25:15;;;;;;;8.88;2.28;;;18.70;62.40;;;;;;5053659;28;20118;-74
2024/02/27 12:27:42;;;;;;;7.93;2.60;;;18.70;62.60;;;;;;5053207;28;20041;-74
2024/02/27 12:30:10;;;;;;;5.75;2.15;;;18.70;62.50;;;;;;5053271;28;20033;-75
2024/02/27 12:32:43;;;;;;;13.27;1.98;;;18.60;61.90;;;;;;5053703;28;20045;-72
2024/02/27 12:35:14;;;;;;;10.73;2.47;;;18.60;61.10;;;;;;5053331;28;20033;-74
2024/02/27 12:37:41;;;;;;;5.28;1.92;;;18.60;60.80;;;;;;5053118;28;20061;-75
2024/02/27 12:40:12;;;;;;;6.43;1.55;;;18.50;60.10;;;;;;5052821;28;20029;-73
2024/02/27 12:42:41;;;;;;;7.82;1.80;;;18.40;59.70;;;;;;5053108;28;20048;-74
2024/02/27 12:45:11;;;;;;;4.85;1.75;;;18.30;59.20;;;;;;5053233;28;20061;-74